Terminal Aerodrome Forecast
Issued by NWS Albany, NY

Current Version | Previous Version | Text Only | Print | Product List | Glossary On
Versions: 1 2 3 4 5 6 7 8 9 10 11 12 13 14 15 16 17 18 19 20 21 22 23
000 FTUS41 KALY 040117 AAA TAFALB TAF AMD KALB 040117Z 0401/0424 19005KT P6SM VCSH SCT050 TEMPO 0401/0402 20008G18KT 3SM TSRA BKN030CB FM040600 VRB03KT 5SM BR BKN030 FM041100 19008KT P6SM SCT035 FM041800 27008G18KT P6SM SCT040=

USA.gov is the U.S. government's official web portal to all federal, state and local government web resources and services.